Time;durP1;ratioP1;P1;durP2;ratioP2;P2;SDS_P1;SDS_P2;PMS_P1;PMS_P2;Temp;Humidity;BMP_temperature;BMP_pressure;BME280_temperature;BME280_humidity;BME280_pressure;Samples;Min_cycle;Max_cycle;Signal;HPM_P1;HPM_P2
2023/05/12 00:01:32;;;;;;;6.63;5.50;;;;;;;;;;4966033;28;20042;-81
2023/05/12 00:03:58;;;;;;;6.95;5.22;;;;;;;;;;4991327;28;20045;-80
2023/05/12 00:06:25;;;;;;;6.38;5.07;;;;;;;;;;4984162;28;20039;-81
2023/05/12 00:08:51;;;;;;;9.20;5.65;;;;;;;;;;4987021;28;20038;-83
2023/05/12 00:11:17;;;;;;;6.85;5.28;;;;;;;;;;4988914;28;20030;-80
2023/05/12 00:13:43;;;;;;;5.45;4.95;;;;;;;;;;4987723;28;20034;-80
2023/05/12 00:16:09;;;;;;;6.57;5.10;;;;;;;;;;4988919;28;20077;-81
2023/05/12 00:18:35;;;;;;;6.40;5.40;;;;;;;;;;4986727;28;20096;-80
2023/05/12 00:21:01;;;;;;;6.55;5.28;;;;;;;;;;4984082;28;20031;-80
2023/05/12 00:23:27;;;;;;;7.03;5.47;;;;;;;;;;4988603;28;20081;-79
2023/05/12 00:25:53;;;;;;;6.18;4.68;;;;;;;;;;4985507;28;20108;-81
2023/05/12 00:28:19;;;;;;;6.78;4.82;;;;;;;;;;4987039;28;20633;-82
2023/05/12 00:30:45;;;;;;;7.78;5.47;;;;;;;;;;4986730;28;20026;-81
2023/05/12 00:33:11;;;;;;;6.78;5.55;;;;;;;;;;4988103;28;20050;-79
2023/05/12 00:35:37;;;;;;;7.00;6.03;;;;;;;;;;4991207;28;20034;-82
2023/05/12 00:38:03;;;;;;;8.63;6.45;;;;;;;;;;4988117;28;20026;-81
2023/05/12 00:40:29;;;;;;;7.80;5.88;;;;;;;;;;4984653;28;20051;-81
2023/05/12 00:42:55;;;;;;;6.38;5.72;;;;;;;;;;4984629;28;20271;-81
2023/05/12 00:45:22;;;;;;;8.45;6.65;;;;;;;;;;4990566;28;20038;-82
2023/05/12 00:47:52;;;;;;;12.65;6.93;;;;;;;;;;4989903;28;20038;-82
2023/05/12 00:50:18;;;;;;;8.82;6.60;;;;;;;;;;4988139;28;20136;-84
2023/05/12 00:52:44;;;;;;;7.85;7.03;;;;;;;;;;4989037;28;22744;-83
2023/05/12 00:55:10;;;;;;;11.75;7.75;;;;;;;;;;4985563;28;20031;-80
2023/05/12 00:57:36;;;;;;;12.82;8.68;;;;;;;;;;4969563;28;20607;-83
2023/05/12 01:00:03;;;;;;;10.23;8.00;;;;;;;;;;4983840;28;20023;-81
2023/05/12 01:02:29;;;;;;;14.23;8.27;;;;;;;;;;4984744;28;20117;-83
2023/05/12 01:04:55;;;;;;;12.40;8.95;;;;;;;;;;4990359;28;20084;-81
2023/05/12 01:07:22;;;;;;;16.40;9.77;;;;;;;;;;4984489;28;20087;-80
2023/05/12 01:09:48;;;;;;;18.10;10.82;;;;;;;;;;4978545;28;20030;-79
2023/05/12 01:12:14;;;;;;;14.40;11.45;;;;;;;;;;4986214;28;20044;-81
2023/05/12 01:14:40;;;;;;;17.85;12.27;;;;;;;;;;4988603;28;20121;-81
2023/05/12 01:17:12;;;;;;;24.50;13.27;;;;;;;;;;4986083;28;20034;-81
2023/05/12 01:19:40;;;;;;;20.43;12.23;;;;;;;;;;4983510;28;20046;-78
2023/05/12 01:22:06;;;;;;;21.88;13.43;;;;;;;;;;4979853;28;20081;-84
2023/05/12 01:24:33;;;;;;;21.10;13.55;;;;;;;;;;4980551;28;20042;-82
2023/05/12 01:27:00;;;;;;;21.63;14.27;;;;;;;;;;4979979;28;20042;-84
2023/05/12 01:29:26;;;;;;;19.95;14.25;;;;;;;;;;4980563;28;20046;-82
2023/05/12 01:31:53;;;;;;;21.02;14.90;;;;;;;;;;4981005;28;20080;-80
2023/05/12 01:34:19;;;;;;;22.25;14.38;;;;;;;;;;4979324;28;20070;-83
2023/05/12 01:36:46;;;;;;;25.95;15.00;;;;;;;;;;4960729;28;20050;-83
2023/05/12 01:39:12;;;;;;;23.10;14.52;;;;;;;;;;4980139;28;20157;-80
2023/05/12 01:41:38;;;;;;;25.38;15.35;;;;;;;;;;4977281;28;20244;-83
2023/05/12 01:44:04;;;;;;;33.58;15.95;;;;;;;;;;4967563;28;20061;-84
2023/05/12 01:46:30;;;;;;;26.85;16.08;;;;;;;;;;4981379;28;20046;-84
2023/05/12 01:48:56;;;;;;;30.33;16.27;;;;;;;;;;4978804;28;20035;-84
2023/05/12 01:51:22;;;;;;;31.45;16.27;;;;;;;;;;4981002;28;20049;-81
2023/05/12 01:53:48;;;;;;;31.00;16.27;;;;;;;;;;4978777;28;20039;-82
2023/05/12 01:56:14;;;;;;;27.70;15.50;;;;;;;;;;4978339;28;20073;-81
2023/05/12 01:58:40;;;;;;;32.70;17.88;;;;;;;;;;4980832;28;20053;-81
2023/05/12 02:01:06;;;;;;;25.45;16.98;;;;;;;;;;4979532;28;20541;-82
2023/05/12 02:03:32;;;;;;;33.10;17.35;;;;;;;;;;4980151;28;20129;-83
2023/05/12 02:05:58;;;;;;;34.40;19.02;;;;;;;;;;4979013;28;20082;-82
2023/05/12 02:08:24;;;;;;;37.90;17.40;;;;;;;;;;4976537;28;20045;-83
2023/05/12 02:10:50;;;;;;;29.73;17.10;;;;;;;;;;4980061;28;20026;-84
2023/05/12 02:13:16;;;;;;;26.67;16.63;;;;;;;;;;4977402;28;20052;-84
2023/05/12 02:15:42;;;;;;;28.88;17.08;;;;;;;;;;4981024;28;20492;-84
2023/05/12 02:18:08;;;;;;;28.98;18.40;;;;;;;;;;4977873;28;20229;-83
2023/05/12 02:20:35;;;;;;;30.60;19.38;;;;;;;;;;4977465;28;20658;-82
2023/05/12 02:23:01;;;;;;;32.80;18.55;;;;;;;;;;4960489;28;20040;-83
2023/05/12 02:25:27;;;;;;;36.38;19.83;;;;;;;;;;4979711;28;20026;-84
2023/05/12 02:27:53;;;;;;;34.28;19.77;;;;;;;;;;4980870;28;20027;-85
2023/05/12 02:30:19;;;;;;;34.25;19.90;;;;;;;;;;4982533;28;20642;-86
2023/05/12 02:32:45;;;;;;;34.85;20.17;;;;;;;;;;4978163;28;20062;-86
2023/05/12 02:35:11;;;;;;;35.50;19.85;;;;;;;;;;4969205;28;20073;-85
2023/05/12 02:37:37;;;;;;;36.20;21.50;;;;;;;;;;4983413;28;20365;-87
2023/05/12 02:40:04;;;;;;;44.42;20.75;;;;;;;;;;4982327;28;20054;-85
2023/05/12 02:42:34;;;;;;;41.58;21.65;;;;;;;;;;4987810;28;20026;-82
2023/05/12 02:45:00;;;;;;;33.17;20.27;;;;;;;;;;4982475;28;20084;-85
2023/05/12 02:47:30;;;;;;;38.72;21.10;;;;;;;;;;4985422;28;20460;-85
2023/05/12 02:49:56;;;;;;;36.75;20.50;;;;;;;;;;4981210;28;20585;-86
2023/05/12 02:52:22;;;;;;;41.08;21.48;;;;;;;;;;4985695;28;20491;-86
2023/05/12 02:54:48;;;;;;;35.63;21.60;;;;;;;;;;4965828;28;20050;-86
2023/05/12 02:57:14;;;;;;;43.88;23.30;;;;;;;;;;4977890;28;20066;-82
2023/05/12 02:59:40;;;;;;;38.85;22.95;;;;;;;;;;4984880;28;20109;-86
2023/05/12 03:02:06;;;;;;;46.85;23.35;;;;;;;;;;4986664;28;20042;-85
2023/05/12 03:04:32;;;;;;;41.30;23.17;;;;;;;;;;4987080;28;20040;-80
2023/05/12 03:06:58;;;;;;;41.75;22.83;;;;;;;;;;4980383;28;20065;-84
2023/05/12 03:09:24;;;;;;;50.67;24.85;;;;;;;;;;4980829;28;20126;-84
2023/05/12 03:11:50;;;;;;;46.65;23.58;;;;;;;;;;4979078;28;20034;-87
2023/05/12 03:14:16;;;;;;;49.95;27.10;;;;;;;;;;4987360;28;20041;-85
2023/05/12 03:16:42;;;;;;;49.30;25.85;;;;;;;;;;4983094;28;20084;-85
2023/05/12 03:19:08;;;;;;;46.70;24.75;;;;;;;;;;4987479;28;20054;-83
2023/05/12 03:21:34;;;;;;;50.60;27.17;;;;;;;;;;4983817;28;20066;-86
2023/05/12 03:24:00;;;;;;;51.00;26.17;;;;;;;;;;4966907;28;20030;-84
2023/05/12 03:26:26;;;;;;;54.47;25.35;;;;;;;;;;4984861;28;20042;-85
2023/05/12 03:28:52;;;;;;;68.30;29.00;;;;;;;;;;4986149;28;20053;-84
2023/05/12 03:31:18;;;;;;;59.08;27.20;;;;;;;;;;4982832;28;20061;-85
2023/05/12 03:33:44;;;;;;;54.42;27.48;;;;;;;;;;4983857;28;20041;-84
2023/05/12 03:36:10;;;;;;;55.35;30.48;;;;;;;;;;4986730;28;20480;-82
2023/05/12 03:38:36;;;;;;;61.30;29.10;;;;;;;;;;4983853;28;20046;-86
2023/05/12 03:41:06;;;;;;;52.33;28.13;;;;;;;;;;4984466;28;20137;-83
2023/05/12 03:43:32;;;;;;;61.72;28.70;;;;;;;;;;4986454;28;20030;-88
2023/05/12 03:45:58;;;;;;;58.03;28.08;;;;;;;;;;4969603;28;20042;-84
2023/05/12 03:48:24;;;;;;;57.45;27.00;;;;;;;;;;4983569;28;20113;-86
2023/05/12 03:50:50;;;;;;;50.63;27.95;;;;;;;;;;4988220;28;20157;-79
2023/05/12 03:53:16;;;;;;;53.88;27.10;;;;;;;;;;4985548;28;20527;-81
2023/05/12 03:55:42;;;;;;;63.63;28.55;;;;;;;;;;4985254;28;20042;-79
2023/05/12 03:58:08;;;;;;;58.17;28.00;;;;;;;;;;4982817;28;20034;-84
2023/05/12 04:00:34;;;;;;;47.67;28.27;;;;;;;;;;4985351;28;20915;-87
2023/05/12 04:03:00;;;;;;;53.78;26.92;;;;;;;;;;4985108;28;20045;-82
2023/05/12 04:05:26;;;;;;;60.45;28.48;;;;;;;;;;4982211;28;20042;-86
2023/05/12 04:07:52;;;;;;;50.88;26.67;;;;;;;;;;4983776;28;20477;-82
2023/05/12 04:10:18;;;;;;;50.78;27.13;;;;;;;;;;4983449;28;20054;-85
2023/05/12 04:12:44;;;;;;;50.95;26.20;;;;;;;;;;4984526;28;20104;-85
2023/05/12 04:15:14;;;;;;;54.35;28.35;;;;;;;;;;4972941;28;20038;-84
2023/05/12 04:17:40;;;;;;;50.33;27.33;;;;;;;;;;4985213;28;20122;-81
2023/05/12 04:20:07;;;;;;;64.85;28.85;;;;;;;;;;4969180;28;20047;-82
2023/05/12 04:22:33;;;;;;;55.90;28.35;;;;;;;;;;4974549;28;20390;-84
2023/05/12 04:24:59;;;;;;;62.35;27.17;;;;;;;;;;4966366;28;20128;-79
2023/05/12 04:27:25;;;;;;;62.70;28.40;;;;;;;;;;4971498;28;23196;-84
2023/05/12 04:29:51;;;;;;;64.35;29.10;;;;;;;;;;4962728;28;20034;-84
2023/05/12 04:32:17;;;;;;;59.47;26.23;;;;;;;;;;4952894;28;20046;-83
2023/05/12 04:34:43;;;;;;;53.95;26.48;;;;;;;;;;4987790;28;20073;-84
2023/05/12 04:37:09;;;;;;;53.17;26.38;;;;;;;;;;4971107;28;20042;-83
2023/05/12 04:39:35;;;;;;;56.00;28.85;;;;;;;;;;4984855;28;20034;-86
2023/05/12 04:42:01;;;;;;;53.60;26.85;;;;;;;;;;4984028;28;20046;-83
2023/05/12 04:44:27;;;;;;;55.45;28.63;;;;;;;;;;4992602;28;20113;-83
2023/05/12 04:46:55;;;;;;;59.80;27.38;;;;;;;;;;4984845;28;20053;-89
2023/05/12 04:49:21;;;;;;;59.45;26.60;;;;;;;;;;4972559;28;20042;-84
2023/05/12 04:51:47;;;;;;;54.05;26.85;;;;;;;;;;4984131;28;20045;-87
2023/05/12 04:54:13;;;;;;;57.95;27.73;;;;;;;;;;4977111;28;20447;-82
2023/05/12 04:56:39;;;;;;;52.35;27.42;;;;;;;;;;4988139;28;20038;-86
2023/05/12 04:59:05;;;;;;;60.00;26.77;;;;;;;;;;4987080;28;20117;-86
2023/05/12 05:01:32;;;;;;;59.00;32.30;;;;;;;;;;4984317;28;20027;-86
2023/05/12 05:03:58;;;;;;;66.22;31.23;;;;;;;;;;4987967;28;20034;-86
2023/05/12 05:06:24;;;;;;;57.05;29.27;;;;;;;;;;4990007;28;20483;-84
2023/05/12 05:08:50;;;;;;;59.58;27.50;;;;;;;;;;4963283;28;20046;-83
2023/05/12 05:11:16;;;;;;;57.00;27.15;;;;;;;;;;4982328;28;20045;-88
2023/05/12 05:13:42;;;;;;;55.78;27.15;;;;;;;;;;4986430;28;20176;-87
2023/05/12 05:16:08;;;;;;;61.53;28.08;;;;;;;;;;4982703;28;20101;-86
2023/05/12 05:18:34;;;;;;;57.55;27.17;;;;;;;;;;4987958;28;20030;-87
2023/05/12 05:21:00;;;;;;;55.50;26.20;;;;;;;;;;4958866;28;20535;-82
2023/05/12 05:23:26;;;;;;;64.80;28.38;;;;;;;;;;4984237;28;20109;-84
2023/05/12 05:25:52;;;;;;;54.15;26.27;;;;;;;;;;4987840;28;20042;-85
2023/05/12 05:28:18;;;;;;;58.25;26.98;;;;;;;;;;4984821;28;20403;-87
2023/05/12 05:30:44;;;;;;;56.15;27.45;;;;;;;;;;4977167;28;20038;-87
2023/05/12 05:33:11;;;;;;;61.53;28.63;;;;;;;;;;4965102;28;20039;-85
2023/05/12 05:35:38;;;;;;;59.92;28.38;;;;;;;;;;4979643;28;20073;-86
2023/05/12 05:38:04;;;;;;;64.68;27.15;;;;;;;;;;4984375;28;20030;-84
2023/05/12 05:40:30;;;;;;;53.72;26.42;;;;;;;;;;4979666;28;20057;-84
2023/05/12 05:42:56;;;;;;;64.65;28.67;;;;;;;;;;4981107;28;20027;-86
2023/05/12 05:45:22;;;;;;;51.08;27.70;;;;;;;;;;4985322;28;20046;-79
2023/05/12 05:47:50;;;;;;;52.50;26.63;;;;;;;;;;4964487;28;20408;-88
2023/05/12 05:50:16;;;;;;;60.85;28.25;;;;;;;;;;4980973;28;20110;-79
2023/05/12 05:52:42;;;;;;;47.90;27.83;;;;;;;;;;4978015;28;20043;-81
2023/05/12 05:55:08;;;;;;;105.32;61.17;;;;;;;;;;4984483;28;20088;-82
2023/05/12 05:57:34;;;;;;;63.63;31.42;;;;;;;;;;4972640;28;20484;-84
2023/05/12 06:00:00;;;;;;;51.42;26.08;;;;;;;;;;4964594;28;20392;-82
2023/05/12 06:02:32;;;;;;;50.20;26.80;;;;;;;;;;4994533;28;20240;-83
2023/05/12 06:04:59;;;;;;;53.70;27.58;;;;;;;;;;4969143;28;20093;-83
2023/05/12 06:07:25;;;;;;;60.45;28.83;;;;;;;;;;4983128;28;20381;-82
2023/05/12 06:09:52;;;;;;;56.97;29.85;;;;;;;;;;4985898;28;20038;-84
2023/05/12 06:12:18;;;;;;;51.40;28.67;;;;;;;;;;4982955;28;20377;-82
2023/05/12 06:14:44;;;;;;;55.25;27.25;;;;;;;;;;4985506;28;20117;-81
2023/05/12 06:17:10;;;;;;;48.50;24.65;;;;;;;;;;4966371;28;20418;-82
2023/05/12 06:19:36;;;;;;;50.85;27.90;;;;;;;;;;4984632;28;20236;-85
2023/05/12 06:22:03;;;;;;;55.53;27.13;;;;;;;;;;4983801;28;20122;-86
2023/05/12 06:24:29;;;;;;;50.60;26.45;;;;;;;;;;4982222;28;20042;-81
2023/05/12 06:26:55;;;;;;;47.05;25.30;;;;;;;;;;4985227;28;20037;-81
2023/05/12 06:29:21;;;;;;;56.85;27.30;;;;;;;;;;4978554;28;20042;-84
2023/05/12 06:31:47;;;;;;;47.03;24.92;;;;;;;;;;4985773;28;20053;-83
2023/05/12 06:34:13;;;;;;;54.45;25.95;;;;;;;;;;4977085;28;20044;-82
2023/05/12 06:36:39;;;;;;;54.22;27.20;;;;;;;;;;4986034;28;20066;-81
2023/05/12 06:39:05;;;;;;;53.85;25.38;;;;;;;;;;4984891;28;20511;-78
2023/05/12 06:41:32;;;;;;;59.08;27.23;;;;;;;;;;4982176;28;20054;-78
2023/05/12 06:44:00;;;;;;;49.58;25.92;;;;;;;;;;4985713;28;20054;-86
2023/05/12 06:46:26;;;;;;;52.22;27.35;;;;;;;;;;4988073;28;20043;-82
2023/05/12 06:48:54;;;;;;;50.75;26.42;;;;;;;;;;4987726;28;20031;-83
2023/05/12 06:51:20;;;;;;;50.28;25.70;;;;;;;;;;4965157;28;20043;-85
2023/05/12 06:53:46;;;;;;;48.65;26.55;;;;;;;;;;4979738;28;20034;-85
2023/05/12 06:56:15;;;;;;;42.03;24.38;;;;;;;;;;4979541;28;20061;-84
2023/05/12 06:58:41;;;;;;;47.33;25.27;;;;;;;;;;4977276;28;20078;-84
2023/05/12 07:01:08;;;;;;;47.78;24.70;;;;;;;;;;4966457;28;20100;-83
2023/05/12 07:03:33;;;;;;;50.22;26.42;;;;;;;;;;4981274;28;20046;-79
2023/05/12 07:06:00;;;;;;;44.25;24.83;;;;;;;;;;4986362;28;20042;-81
2023/05/12 07:08:26;;;;;;;45.45;25.70;;;;;;;;;;4986898;28;20034;-80
2023/05/12 07:10:52;;;;;;;41.72;25.63;;;;;;;;;;4980937;28;20031;-80
2023/05/12 07:13:19;;;;;;;41.13;25.00;;;;;;;;;;4976826;28;20038;-81
2023/05/12 07:15:45;;;;;;;45.60;24.17;;;;;;;;;;4963328;28;20361;-81
2023/05/12 07:18:11;;;;;;;41.25;25.08;;;;;;;;;;4983572;28;20053;-80
2023/05/12 07:20:37;;;;;;;39.25;23.88;;;;;;;;;;4976646;28;20030;-87
2023/05/12 07:23:03;;;;;;;51.28;25.23;;;;;;;;;;4981329;28;20034;-80
2023/05/12 07:25:30;;;;;;;52.15;32.33;;;;;;;;;;4986762;28;20034;-80
2023/05/12 07:27:56;;;;;;;39.72;24.15;;;;;;;;;;4986624;28;20041;-78
2023/05/12 07:30:22;;;;;;;38.88;24.88;;;;;;;;;;4986071;28;20038;-82
2023/05/12 07:32:47;;;;;;;35.47;23.95;;;;;;;;;;4992864;28;20030;-81
2023/05/12 07:35:13;;;;;;;38.63;24.45;;;;;;;;;;4987326;28;20137;-82
2023/05/12 07:37:40;;;;;;;41.67;25.33;;;;;;;;;;4984888;28;20081;-80
2023/05/12 07:40:06;;;;;;;33.90;23.40;;;;;;;;;;4983648;28;20066;-80
2023/05/12 07:42:32;;;;;;;41.30;24.13;;;;;;;;;;4984437;28;20030;-80
2023/05/12 07:44:58;;;;;;;39.08;23.55;;;;;;;;;;4983571;28;20046;-85
2023/05/12 07:47:25;;;;;;;37.70;25.52;;;;;;;;;;4984753;28;20030;-85
2023/05/12 07:49:51;;;;;;;43.70;24.42;;;;;;;;;;4961166;28;20031;-83
2023/05/12 07:52:17;;;;;;;41.47;24.63;;;;;;;;;;4983614;28;20034;-82
2023/05/12 07:54:43;;;;;;;37.92;22.08;;;;;;;;;;4980216;28;20542;-82
2023/05/12 07:57:09;;;;;;;45.97;29.20;;;;;;;;;;4983358;28;20081;-82
2023/05/12 07:59:35;;;;;;;57.72;34.05;;;;;;;;;;4977125;28;20077;-83
2023/05/12 08:02:01;;;;;;;37.33;23.08;;;;;;;;;;4984034;28;20034;-80
2023/05/12 08:04:27;;;;;;;36.78;23.15;;;;;;;;;;4985939;28;20046;-83
2023/05/12 08:06:53;;;;;;;36.70;22.58;;;;;;;;;;4983007;28;20584;-83
2023/05/12 08:09:20;;;;;;;35.50;22.40;;;;;;;;;;4982991;28;20045;-82
2023/05/12 08:11:46;;;;;;;36.60;24.52;;;;;;;;;;4983661;28;20038;-84
2023/05/12 08:14:12;;;;;;;35.13;24.50;;;;;;;;;;4983777;28;20492;-83
2023/05/12 08:16:38;;;;;;;40.85;24.58;;;;;;;;;;4988648;28;20082;-81
2023/05/12 08:19:04;;;;;;;41.10;24.80;;;;;;;;;;4984788;28;20038;-80
2023/05/12 08:21:30;;;;;;;37.63;23.83;;;;;;;;;;4991256;28;20045;-81
2023/05/12 08:23:56;;;;;;;38.22;23.60;;;;;;;;;;4969250;28;20057;-81
2023/05/12 08:26:23;;;;;;;39.83;24.30;;;;;;;;;;4987897;28;20132;-82
2023/05/12 08:28:49;;;;;;;36.30;24.10;;;;;;;;;;4987782;28;20048;-81
2023/05/12 08:31:15;;;;;;;40.65;23.98;;;;;;;;;;4994842;28;20527;-81
2023/05/12 08:33:42;;;;;;;39.30;25.20;;;;;;;;;;4987794;28;20046;-82
2023/05/12 08:36:08;;;;;;;40.40;24.02;;;;;;;;;;4972685;28;20129;-81
2023/05/12 08:38:34;;;;;;;33.70;23.80;;;;;;;;;;4986045;28;20056;-81
2023/05/12 08:41:16;;;;;;;31.30;23.30;;;;;;;;;;4986816;28;20519;-81
2023/05/12 08:43:48;;;;;;;35.25;23.23;;;;;;;;;;4984759;28;20543;-82
2023/05/12 08:46:15;;;;;;;34.03;22.92;;;;;;;;;;4995281;28;20170;-81
2023/05/12 08:48:41;;;;;;;36.55;21.17;;;;;;;;;;4987603;28;20430;-81
2023/05/12 08:51:10;;;;;;;31.23;19.83;;;;;;;;;;4988001;28;20026;-82
2023/05/12 08:53:37;;;;;;;28.40;20.30;;;;;;;;;;4988706;28;20536;-82
2023/05/12 08:56:05;;;;;;;24.00;18.77;;;;;;;;;;4984658;28;20042;-82
2023/05/12 08:58:32;;;;;;;25.65;19.10;;;;;;;;;;4987809;28;20074;-81
2023/05/12 09:01:00;;;;;;;23.95;18.27;;;;;;;;;;4987593;28;20085;-81
2023/05/12 09:03:30;;;;;;;22.55;17.83;;;;;;;;;;4976226;28;20039;-82
2023/05/12 09:05:57;;;;;;;24.15;18.52;;;;;;;;;;4979643;28;20032;-80
2023/05/12 09:08:25;;;;;;;28.75;18.90;;;;;;;;;;4982730;28;20037;-80
2023/05/12 09:10:51;;;;;;;29.88;17.58;;;;;;;;;;4990799;28;20038;-82
2023/05/12 09:13:23;;;;;;;23.85;17.05;;;;;;;;;;4981164;28;20074;-81
2023/05/12 09:15:51;;;;;;;22.73;17.20;;;;;;;;;;4974065;28;20507;-83
2023/05/12 09:18:17;;;;;;;28.17;18.70;;;;;;;;;;4987159;28;20030;-81
2023/05/12 09:20:43;;;;;;;25.02;17.33;;;;;;;;;;4972965;28;20030;-81
2023/05/12 09:23:16;;;;;;;22.48;17.23;;;;;;;;;;4984773;28;20034;-82
2023/05/12 09:25:42;;;;;;;27.85;17.88;;;;;;;;;;4985727;28;20046;-82
2023/05/12 09:28:08;;;;;;;25.40;16.65;;;;;;;;;;4984957;28;20042;-81
2023/05/12 09:30:37;;;;;;;22.02;17.38;;;;;;;;;;4988117;28;20132;-82
2023/05/12 09:33:09;;;;;;;20.48;16.05;;;;;;;;;;4986411;28;20042;-81
2023/05/12 09:35:42;;;;;;;24.45;17.63;;;;;;;;;;4987684;28;20065;-82
2023/05/12 09:38:09;;;;;;;23.67;17.58;;;;;;;;;;4984654;28;20130;-81
2023/05/12 09:40:35;;;;;;;21.13;16.77;;;;;;;;;;4984480;28;20455;-82
2023/05/12 09:43:02;;;;;;;25.58;19.42;;;;;;;;;;4991073;28;20038;-79
2023/05/12 09:45:28;;;;;;;26.25;20.75;;;;;;;;;;4985054;28;20487;-78
2023/05/12 09:47:54;;;;;;;22.25;19.30;;;;;;;;;;4991809;28;20033;-79
2023/05/12 09:50:21;;;;;;;22.08;18.00;;;;;;;;;;4968162;28;20395;-81
2023/05/12 09:52:50;;;;;;;24.40;18.30;;;;;;;;;;4972589;28;20061;-79
2023/05/12 09:55:16;;;;;;;24.33;17.23;;;;;;;;;;4983529;28;20045;-80
2023/05/12 09:57:43;;;;;;;21.13;17.85;;;;;;;;;;4984210;28;20034;-85
2023/05/12 10:00:11;;;;;;;19.15;16.75;;;;;;;;;;4979073;28;20735;-83
2023/05/12 10:02:40;;;;;;;18.27;16.35;;;;;;;;;;4973995;28;20494;-78
2023/05/12 10:05:07;;;;;;;19.77;16.60;;;;;;;;;;4983650;28;20034;-81
2023/05/12 10:07:34;;;;;;;19.23;17.15;;;;;;;;;;4984867;28;20422;-84
2023/05/12 10:10:03;;;;;;;21.83;17.48;;;;;;;;;;4986678;28;20061;-82
2023/05/12 10:12:29;;;;;;;19.45;15.68;;;;;;;;;;4987324;28;20034;-82
2023/05/12 10:14:56;;;;;;;21.45;15.73;;;;;;;;;;4989085;28;20058;-82
2023/05/12 10:17:22;;;;;;;16.98;13.70;;;;;;;;;;4986951;28;20274;-82
2023/05/12 10:19:49;;;;;;;17.40;14.82;;;;;;;;;;4965826;28;20035;-78
2023/05/12 10:22:15;;;;;;;16.80;13.63;;;;;;;;;;4993176;28;20033;-85
2023/05/12 10:24:41;;;;;;;17.27;14.38;;;;;;;;;;4985153;28;23276;-79
2023/05/12 10:27:07;;;;;;;18.00;12.55;;;;;;;;;;4984444;28;20092;-79
2023/05/12 10:29:34;;;;;;;13.55;12.15;;;;;;;;;;4987450;28;20106;-80
2023/05/12 10:32:00;;;;;;;34.17;26.42;;;;;;;;;;4988071;28;20030;-83
2023/05/12 10:34:32;;;;;;;18.20;14.90;;;;;;;;;;4988640;28;20034;-82
2023/05/12 10:36:58;;;;;;;16.58;14.85;;;;;;;;;;4980838;28;20035;-84
2023/05/12 10:39:28;;;;;;;18.88;14.43;;;;;;;;;;4986343;28;20583;-81
2023/05/12 10:42:00;;;;;;;16.92;13.85;;;;;;;;;;4986317;28;20046;-81
2023/05/12 10:44:27;;;;;;;14.80;13.25;;;;;;;;;;4971160;28;20053;-82
2023/05/12 10:47:00;;;;;;;16.67;13.40;;;;;;;;;;4992679;28;20117;-83
2023/05/12 10:49:38;;;;;;;13.23;11.75;;;;;;;;;;4986260;28;20034;-82
2023/05/12 10:52:05;;;;;;;16.90;13.25;;;;;;;;;;4985224;28;20147;-81
2023/05/12 10:54:37;;;;;;;12.75;11.45;;;;;;;;;;4983339;28;20066;-84
2023/05/12 10:57:12;;;;;;;15.90;11.05;;;;;;;;;;4987204;28;20452;-84
2023/05/12 10:59:46;;;;;;;12.85;10.40;;;;;;;;;;4986523;28;20081;-82
2023/05/12 11:02:15;;;;;;;11.75;10.52;;;;;;;;;;4987061;28;20034;-83
2023/05/12 11:04:50;;;;;;;18.60;10.52;;;;;;;;;;4987819;28;20088;-82
2023/05/12 11:07:20;;;;;;;16.02;11.30;;;;;;;;;;4970412;28;20026;-82
2023/05/12 11:09:46;;;;;;;13.43;10.95;;;;;;;;;;4982680;28;20023;-82
2023/05/12 11:12:13;;;;;;;10.93;9.85;;;;;;;;;;4985918;28;20030;-85
2023/05/12 11:14:40;;;;;;;12.57;10.02;;;;;;;;;;4985701;28;20072;-83
2023/05/12 11:17:06;;;;;;;16.15;11.07;;;;;;;;;;4985223;28;20038;-82
2023/05/12 11:19:32;;;;;;;13.70;9.60;;;;;;;;;;4984160;28;20031;-84
2023/05/12 11:22:04;;;;;;;11.05;9.95;;;;;;;;;;4987339;28;20022;-84
2023/05/12 11:24:30;;;;;;;12.52;10.02;;;;;;;;;;4969079;28;20062;-85
2023/05/12 11:26:57;;;;;;;11.63;9.65;;;;;;;;;;4982049;28;20030;-85
2023/05/12 11:29:23;;;;;;;12.05;10.15;;;;;;;;;;4986227;28;20037;-84
2023/05/12 11:31:52;;;;;;;10.90;9.13;;;;;;;;;;4993164;28;23689;-81
2023/05/12 11:34:24;;;;;;;12.75;9.23;;;;;;;;;;4985601;28;20143;-81
2023/05/12 11:36:51;;;;;;;11.43;9.07;;;;;;;;;;4983394;28;20073;-84
2023/05/12 11:39:25;;;;;;;11.70;9.05;;;;;;;;;;4987034;28;20034;-86
2023/05/12 11:41:51;;;;;;;11.18;9.43;;;;;;;;;;4983655;28;20054;-85
2023/05/12 11:44:18;;;;;;;8.15;7.35;;;;;;;;;;4982898;28;20043;-85
2023/05/12 11:46:57;;;;;;;10.50;8.57;;;;;;;;;;4986929;28;20693;-83
2023/05/12 11:49:24;;;;;;;9.60;8.60;;;;;;;;;;4990054;28;20061;-87
2023/05/12 11:51:53;;;;;;;9.57;7.57;;;;;;;;;;4987800;28;20048;-78
2023/05/12 11:54:20;;;;;;;12.68;7.50;;;;;;;;;;4988712;28;20034;-83
2023/05/12 11:56:50;;;;;;;11.20;9.10;;;;;;;;;;4986984;28;20158;-86
2023/05/12 11:59:26;;;;;;;12.73;9.02;;;;;;;;;;4985633;28;20048;-87
2023/05/12 12:01:52;;;;;;;15.07;7.55;;;;;;;;;;4996117;28;20050;-85
2023/05/12 12:04:18;;;;;;;9.75;8.07;;;;;;;;;;4987404;28;20184;-80
2023/05/12 12:06:44;;;;;;;11.13;7.68;;;;;;;;;;4991243;28;20483;-81
2023/05/12 12:09:11;;;;;;;8.52;7.30;;;;;;;;;;4991143;28;20041;-82
2023/05/12 12:11:37;;;;;;;8.63;7.28;;;;;;;;;;4972896;28;20034;-86
2023/05/12 12:14:03;;;;;;;9.02;7.55;;;;;;;;;;4991133;28;20380;-85
2023/05/12 12:16:30;;;;;;;8.25;6.60;;;;;;;;;;4994702;28;20126;-86
2023/05/12 12:18:56;;;;;;;8.40;6.20;;;;;;;;;;4985424;28;20029;-88
2023/05/12 12:21:23;;;;;;;7.88;5.38;;;;;;;;;;4972578;28;20379;-87
2023/05/12 12:23:49;;;;;;;6.65;5.30;;;;;;;;;;4991404;28;20743;-87
2023/05/12 12:26:16;;;;;;;7.20;5.47;;;;;;;;;;4987853;28;20424;-82
2023/05/12 12:28:51;;;;;;;10.20;5.78;;;;;;;;;;4984510;28;20042;-86
2023/05/12 12:31:17;;;;;;;6.25;4.78;;;;;;;;;;4982331;28;20030;-85
2023/05/12 12:33:43;;;;;;;7.15;5.05;;;;;;;;;;4987318;28;20049;-85
2023/05/12 12:36:09;;;;;;;6.53;3.83;;;;;;;;;;4989868;28;20141;-87
2023/05/12 12:38:35;;;;;;;3.85;3.22;;;;;;;;;;4988422;28;20527;-85
2023/05/12 12:41:01;;;;;;;4.18;3.38;;;;;;;;;;4988560;28;20121;-81
2023/05/12 12:43:27;;;;;;;6.63;4.35;;;;;;;;;;4988321;28;20559;-81
2023/05/12 12:45:53;;;;;;;6.20;4.15;;;;;;;;;;4987135;28;20084;-84
2023/05/12 12:48:20;;;;;;;5.40;3.90;;;;;;;;;;4984849;28;20050;-83
2023/05/12 12:50:46;;;;;;;4.30;3.88;;;;;;;;;;4984314;28;20038;-81
2023/05/12 12:53:12;;;;;;;5.95;3.47;;;;;;;;;;4987442;28;20045;-84
2023/05/12 12:55:38;;;;;;;6.13;3.70;;;;;;;;;;4985175;28;20038;-81
2023/05/12 12:58:04;;;;;;;3.70;3.13;;;;;;;;;;4987052;28;20039;-84
2023/05/12 13:00:30;;;;;;;6.28;3.20;;;;;;;;;;4985678;28;20490;-82
2023/05/12 13:02:56;;;;;;;5.00;3.40;;;;;;;;;;4980165;28;20038;-82
2023/05/12 13:05:22;;;;;;;4.57;3.53;;;;;;;;;;4988770;28;20069;-84
2023/05/12 13:07:50;;;;;;;8.10;3.72;;;;;;;;;;4987894;28;20459;-79
2023/05/12 13:10:16;;;;;;;5.15;4.10;;;;;;;;;;4987614;28;20384;-83
2023/05/12 13:12:42;;;;;;;3.35;3.00;;;;;;;;;;4988273;28;20065;-85
2023/05/12 13:15:09;;;;;;;4.80;2.65;;;;;;;;;;4985047;28;20026;-86
2023/05/12 13:17:35;;;;;;;3.03;1.88;;;;;;;;;;4982393;28;20038;-81
2023/05/12 13:20:02;;;;;;;3.95;1.90;;;;;;;;;;4982516;28;20033;-86
2023/05/12 13:22:28;;;;;;;7.63;2.40;;;;;;;;;;4980958;28;20023;-81
2023/05/12 13:24:55;;;;;;;3.05;1.45;;;;;;;;;;4985437;28;20054;-80
2023/05/12 13:27:21;;;;;;;2.90;1.88;;;;;;;;;;4988847;28;20071;-85
2023/05/12 13:29:47;;;;;;;5.18;2.00;;;;;;;;;;4984750;28;20063;-82
2023/05/12 13:32:15;;;;;;;1.90;1.60;;;;;;;;;;4978818;28;20027;-84
2023/05/12 13:34:41;;;;;;;3.75;2.67;;;;;;;;;;4983000;28;20116;-81
2023/05/12 13:37:07;;;;;;;5.35;2.50;;;;;;;;;;4985929;28;20344;-81
2023/05/12 13:39:34;;;;;;;5.15;2.50;;;;;;;;;;4986472;28;20030;-81
2023/05/12 13:42:02;;;;;;;4.20;2.55;;;;;;;;;;4984325;28;20053;-83
2023/05/12 13:44:28;;;;;;;6.43;2.60;;;;;;;;;;4981002;28;20093;-84
2023/05/12 13:46:54;;;;;;;6.53;2.38;;;;;;;;;;4981218;28;20617;-84
2023/05/12 13:49:19;;;;;;;2.55;2.03;;;;;;;;;;4978255;28;20039;-83
2023/05/12 13:51:46;;;;;;;5.35;2.45;;;;;;;;;;4979696;28;20038;-85
2023/05/12 13:54:12;;;;;;;3.50;2.70;;;;;;;;;;4979199;28;20073;-83
2023/05/12 13:56:38;;;;;;;7.40;5.45;;;;;;;;;;4976024;28;23649;-84
2023/05/12 13:59:04;;;;;;;12.05;7.00;;;;;;;;;;4976449;28;20022;-83
2023/05/12 14:01:30;;;;;;;5.40;2.58;;;;;;;;;;4979734;28;20037;-83
2023/05/12 14:03:57;;;;;;;2.75;2.40;;;;;;;;;;4964189;28;20027;-85
2023/05/12 14:06:23;;;;;;;5.70;2.42;;;;;;;;;;4978552;28;20495;-85
2023/05/12 14:08:49;;;;;;;7.38;4.10;;;;;;;;;;4963237;28;20656;-82
2023/05/12 14:11:15;;;;;;;7.25;4.78;;;;;;;;;;4983454;28;20038;-80
2023/05/12 14:13:41;;;;;;;8.18;5.18;;;;;;;;;;4988944;28;20026;-83
2023/05/12 14:16:08;;;;;;;11.80;6.90;;;;;;;;;;4979524;28;20038;-83
2023/05/12 14:18:34;;;;;;;8.68;7.72;;;;;;;;;;4982944;28;20041;-82
2023/05/12 14:21:00;;;;;;;9.82;7.85;;;;;;;;;;4988790;28;20036;-85